sensor_id;sensor_type;location;lat;lon;timestamp;P1;durP1;ratioP1;P2;durP2;ratioP2
8312;SDS011;4194;43.408;24.626;2023-04-15T00:00:37;11.97;;;8.07;;
8312;SDS011;4194;43.408;24.626;2023-04-15T00:03:02;10.13;;;7.00;;
8312;SDS011;4194;43.408;24.626;2023-04-15T00:05:30;10.30;;;6.90;;
8312;SDS011;4194;43.408;24.626;2023-04-15T00:07:56;10.17;;;7.10;;
8312;SDS011;4194;43.408;24.626;2023-04-15T00:10:23;12.27;;;7.23;;
8312;SDS011;4194;43.408;24.626;2023-04-15T00:12:49;13.47;;;7.83;;
8312;SDS011;4194;43.408;24.626;2023-04-15T00:15:16;10.90;;;6.10;;
8312;SDS011;4194;43.408;24.626;2023-04-15T00:17:42;9.80;;;7.13;;
8312;SDS011;4194;43.408;24.626;2023-04-15T00:20:07;12.43;;;8.03;;
8312;SDS011;4194;43.408;24.626;2023-04-15T00:22:34;13.63;;;7.30;;
8312;SDS011;4194;43.408;24.626;2023-04-15T00:25:00;12.37;;;7.27;;
8312;SDS011;4194;43.408;24.626;2023-04-15T00:27:26;7.47;;;5.80;;
8312;SDS011;4194;43.408;24.626;2023-04-15T00:29:52;13.53;;;5.67;;
8312;SDS011;4194;43.408;24.626;2023-04-15T00:32:18;8.67;;;5.67;;
8312;SDS011;4194;43.408;24.626;2023-04-15T00:34:44;7.63;;;5.67;;
8312;SDS011;4194;43.408;24.626;2023-04-15T00:37:10;9.93;;;5.83;;
8312;SDS011;4194;43.408;24.626;2023-04-15T00:39:36;7.87;;;5.27;;
8312;SDS011;4194;43.408;24.626;2023-04-15T00:42:05;8.40;;;5.93;;
8312;SDS011;4194;43.408;24.626;2023-04-15T00:44:31;7.20;;;4.87;;
8312;SDS011;4194;43.408;24.626;2023-04-15T00:46:57;8.00;;;5.20;;
8312;SDS011;4194;43.408;24.626;2023-04-15T00:49:24;6.80;;;4.80;;
8312;SDS011;4194;43.408;24.626;2023-04-15T00:51:52;7.30;;;5.30;;
8312;SDS011;4194;43.408;24.626;2023-04-15T00:54:17;7.60;;;5.83;;
8312;SDS011;4194;43.408;24.626;2023-04-15T00:56:43;8.17;;;5.67;;
8312;SDS011;4194;43.408;24.626;2023-04-15T00:59:08;9.90;;;5.37;;
8312;SDS011;4194;43.408;24.626;2023-04-15T01:01:34;7.00;;;5.37;;
8312;SDS011;4194;43.408;24.626;2023-04-15T01:04:01;7.80;;;6.60;;
8312;SDS011;4194;43.408;24.626;2023-04-15T01:06:27;6.70;;;6.00;;
8312;SDS011;4194;43.408;24.626;2023-04-15T01:08:53;7.07;;;5.37;;
8312;SDS011;4194;43.408;24.626;2023-04-15T01:11:20;10.80;;;6.33;;
8312;SDS011;4194;43.408;24.626;2023-04-15T01:13:48;12.73;;;6.73;;
8312;SDS011;4194;43.408;24.626;2023-04-15T01:16:14;8.27;;;6.03;;
8312;SDS011;4194;43.408;24.626;2023-04-15T01:18:41;8.23;;;6.13;;
8312;SDS011;4194;43.408;24.626;2023-04-15T01:21:07;12.57;;;6.93;;
8312;SDS011;4194;43.408;24.626;2023-04-15T01:23:34;6.77;;;5.80;;
8312;SDS011;4194;43.408;24.626;2023-04-15T01:26:02;8.27;;;6.63;;
8312;SDS011;4194;43.408;24.626;2023-04-15T01:28:29;8.33;;;6.03;;
8312;SDS011;4194;43.408;24.626;2023-04-15T01:31:05;9.33;;;5.50;;
8312;SDS011;4194;43.408;24.626;2023-04-15T01:33:38;7.90;;;5.27;;
8312;SDS011;4194;43.408;24.626;2023-04-15T01:36:05;8.30;;;5.77;;
8312;SDS011;4194;43.408;24.626;2023-04-15T01:38:33;8.73;;;5.53;;
8312;SDS011;4194;43.408;24.626;2023-04-15T01:41:00;8.07;;;5.77;;
8312;SDS011;4194;43.408;24.626;2023-04-15T01:43:26;12.40;;;5.77;;
8312;SDS011;4194;43.408;24.626;2023-04-15T01:45:52;12.37;;;5.07;;
8312;SDS011;4194;43.408;24.626;2023-04-15T01:48:18;5.70;;;5.00;;
8312;SDS011;4194;43.408;24.626;2023-04-15T01:50:44;7.90;;;5.70;;
8312;SDS011;4194;43.408;24.626;2023-04-15T01:53:10;8.80;;;5.87;;
8312;SDS011;4194;43.408;24.626;2023-04-15T01:55:36;9.70;;;5.67;;
8312;SDS011;4194;43.408;24.626;2023-04-15T01:58:02;7.13;;;5.77;;
8312;SDS011;4194;43.408;24.626;2023-04-15T02:00:28;7.37;;;5.80;;
8312;SDS011;4194;43.408;24.626;2023-04-15T02:02:54;6.70;;;5.17;;
8312;SDS011;4194;43.408;24.626;2023-04-15T02:05:20;6.70;;;5.10;;
8312;SDS011;4194;43.408;24.626;2023-04-15T02:07:46;4.77;;;4.03;;
8312;SDS011;4194;43.408;24.626;2023-04-15T02:10:12;7.43;;;5.23;;
8312;SDS011;4194;43.408;24.626;2023-04-15T02:12:38;9.20;;;5.77;;
8312;SDS011;4194;43.408;24.626;2023-04-15T02:15:04;7.17;;;5.23;;
8312;SDS011;4194;43.408;24.626;2023-04-15T02:17:34;9.67;;;6.27;;
8312;SDS011;4194;43.408;24.626;2023-04-15T02:20:00;8.57;;;5.93;;
8312;SDS011;4194;43.408;24.626;2023-04-15T02:22:26;8.47;;;6.20;;
8312;SDS011;4194;43.408;24.626;2023-04-15T02:24:52;9.93;;;7.00;;
8312;SDS011;4194;43.408;24.626;2023-04-15T02:27:18;9.77;;;6.87;;
8312;SDS011;4194;43.408;24.626;2023-04-15T02:29:44;11.53;;;6.80;;
8312;SDS011;4194;43.408;24.626;2023-04-15T02:32:10;11.03;;;7.50;;
8312;SDS011;4194;43.408;24.626;2023-04-15T02:34:37;10.83;;;7.30;;
8312;SDS011;4194;43.408;24.626;2023-04-15T02:37:05;10.93;;;6.53;;
8312;SDS011;4194;43.408;24.626;2023-04-15T02:39:31;12.63;;;6.53;;
8312;SDS011;4194;43.408;24.626;2023-04-15T02:41:57;10.50;;;6.83;;
8312;SDS011;4194;43.408;24.626;2023-04-15T02:44:24;10.50;;;6.27;;
8312;SDS011;4194;43.408;24.626;2023-04-15T02:46:51;9.80;;;6.37;;
8312;SDS011;4194;43.408;24.626;2023-04-15T02:49:21;12.57;;;8.20;;
8312;SDS011;4194;43.408;24.626;2023-04-15T02:51:48;10.57;;;6.60;;
8312;SDS011;4194;43.408;24.626;2023-04-15T02:54:14;11.40;;;7.10;;
8312;SDS011;4194;43.408;24.626;2023-04-15T02:56:43;13.13;;;7.27;;
8312;SDS011;4194;43.408;24.626;2023-04-15T02:59:10;16.77;;;9.47;;
8312;SDS011;4194;43.408;24.626;2023-04-15T03:01:36;18.50;;;11.33;;
8312;SDS011;4194;43.408;24.626;2023-04-15T03:04:02;20.10;;;12.40;;
8312;SDS011;4194;43.408;24.626;2023-04-15T03:06:28;37.63;;;25.73;;
8312;SDS011;4194;43.408;24.626;2023-04-15T03:08:54;30.77;;;20.83;;
8312;SDS011;4194;43.408;24.626;2023-04-15T03:11:20;32.40;;;20.00;;
8312;SDS011;4194;43.408;24.626;2023-04-15T03:13:47;31.07;;;18.23;;
8312;SDS011;4194;43.408;24.626;2023-04-15T03:16:12;19.63;;;11.10;;
8312;SDS011;4194;43.408;24.626;2023-04-15T03:18:38;23.03;;;12.20;;
8312;SDS011;4194;43.408;24.626;2023-04-15T03:21:04;15.50;;;9.07;;
8312;SDS011;4194;43.408;24.626;2023-04-15T03:23:30;15.00;;;8.70;;
8312;SDS011;4194;43.408;24.626;2023-04-15T03:25:56;9.37;;;6.93;;
8312;SDS011;4194;43.408;24.626;2023-04-15T03:28:23;7.70;;;6.43;;
8312;SDS011;4194;43.408;24.626;2023-04-15T03:30:49;7.87;;;5.30;;
8312;SDS011;4194;43.408;24.626;2023-04-15T03:33:15;18.37;;;11.13;;
8312;SDS011;4194;43.408;24.626;2023-04-15T03:35:41;18.83;;;13.00;;
8312;SDS011;4194;43.408;24.626;2023-04-15T03:38:07;13.83;;;9.73;;
8312;SDS011;4194;43.408;24.626;2023-04-15T03:40:32;12.97;;;8.07;;
8312;SDS011;4194;43.408;24.626;2023-04-15T03:42:58;16.17;;;8.77;;
8312;SDS011;4194;43.408;24.626;2023-04-15T03:45:24;9.90;;;6.90;;
8312;SDS011;4194;43.408;24.626;2023-04-15T03:47:50;9.43;;;6.83;;
8312;SDS011;4194;43.408;24.626;2023-04-15T03:50:15;12.60;;;7.03;;
8312;SDS011;4194;43.408;24.626;2023-04-15T03:52:41;8.83;;;6.00;;
8312;SDS011;4194;43.408;24.626;2023-04-15T03:55:08;10.53;;;5.70;;
8312;SDS011;4194;43.408;24.626;2023-04-15T03:57:34;11.90;;;5.20;;
8312;SDS011;4194;43.408;24.626;2023-04-15T04:00:03;7.70;;;4.20;;
8312;SDS011;4194;43.408;24.626;2023-04-15T04:02:29;6.27;;;3.93;;
8312;SDS011;4194;43.408;24.626;2023-04-15T04:04:55;6.17;;;4.20;;
8312;SDS011;4194;43.408;24.626;2023-04-15T04:07:22;4.87;;;3.07;;
8312;SDS011;4194;43.408;24.626;2023-04-15T04:09:48;4.83;;;3.33;;
8312;SDS011;4194;43.408;24.626;2023-04-15T04:12:13;6.13;;;3.90;;
8312;SDS011;4194;43.408;24.626;2023-04-15T04:14:39;7.03;;;3.97;;
8312;SDS011;4194;43.408;24.626;2023-04-15T04:17:05;10.67;;;4.33;;
8312;SDS011;4194;43.408;24.626;2023-04-15T04:19:30;6.87;;;4.40;;
8312;SDS011;4194;43.408;24.626;2023-04-15T04:21:56;6.43;;;5.10;;
8312;SDS011;4194;43.408;24.626;2023-04-15T04:24:22;10.33;;;4.50;;
8312;SDS011;4194;43.408;24.626;2023-04-15T04:26:48;9.17;;;4.67;;
8312;SDS011;4194;43.408;24.626;2023-04-15T04:29:13;12.70;;;4.63;;
8312;SDS011;4194;43.408;24.626;2023-04-15T04:31:39;9.33;;;5.20;;
8312;SDS011;4194;43.408;24.626;2023-04-15T04:34:05;8.63;;;5.03;;
8312;SDS011;4194;43.408;24.626;2023-04-15T04:36:31;8.63;;;5.50;;
8312;SDS011;4194;43.408;24.626;2023-04-15T04:38:57;10.20;;;5.97;;
8312;SDS011;4194;43.408;24.626;2023-04-15T04:41:23;7.10;;;5.50;;
8312;SDS011;4194;43.408;24.626;2023-04-15T04:43:48;11.47;;;6.10;;
8312;SDS011;4194;43.408;24.626;2023-04-15T04:46:14;8.00;;;5.77;;
8312;SDS011;4194;43.408;24.626;2023-04-15T04:48:40;10.13;;;6.07;;
8312;SDS011;4194;43.408;24.626;2023-04-15T04:51:05;8.40;;;5.63;;
8312;SDS011;4194;43.408;24.626;2023-04-15T04:53:32;9.33;;;6.60;;
8312;SDS011;4194;43.408;24.626;2023-04-15T04:55:57;10.83;;;5.47;;
8312;SDS011;4194;43.408;24.626;2023-04-15T04:58:23;11.60;;;4.90;;
8312;SDS011;4194;43.408;24.626;2023-04-15T05:00:49;11.67;;;4.90;;
8312;SDS011;4194;43.408;24.626;2023-04-15T05:03:15;6.97;;;4.13;;
8312;SDS011;4194;43.408;24.626;2023-04-15T05:05:41;8.37;;;4.30;;
8312;SDS011;4194;43.408;24.626;2023-04-15T05:08:07;11.83;;;4.87;;
8312;SDS011;4194;43.408;24.626;2023-04-15T05:10:33;12.87;;;4.87;;
8312;SDS011;4194;43.408;24.626;2023-04-15T05:12:59;11.03;;;6.07;;
8312;SDS011;4194;43.408;24.626;2023-04-15T05:15:25;12.03;;;7.43;;
8312;SDS011;4194;43.408;24.626;2023-04-15T05:17:50;15.60;;;9.27;;
8312;SDS011;4194;43.408;24.626;2023-04-15T05:20:16;15.77;;;7.97;;
8312;SDS011;4194;43.408;24.626;2023-04-15T05:22:42;19.77;;;6.77;;
8312;SDS011;4194;43.408;24.626;2023-04-15T05:25:08;10.20;;;4.80;;
8312;SDS011;4194;43.408;24.626;2023-04-15T05:27:34;14.70;;;6.30;;
8312;SDS011;4194;43.408;24.626;2023-04-15T05:30:00;14.73;;;5.43;;
8312;SDS011;4194;43.408;24.626;2023-04-15T05:32:25;13.07;;;5.30;;
8312;SDS011;4194;43.408;24.626;2023-04-15T05:34:51;5.97;;;3.10;;
8312;SDS011;4194;43.408;24.626;2023-04-15T05:37:17;4.30;;;2.40;;
8312;SDS011;4194;43.408;24.626;2023-04-15T05:39:45;3.33;;;2.10;;
8312;SDS011;4194;43.408;24.626;2023-04-15T05:42:11;7.23;;;2.57;;
8312;SDS011;4194;43.408;24.626;2023-04-15T05:44:36;5.77;;;2.70;;
8312;SDS011;4194;43.408;24.626;2023-04-15T05:47:02;22.30;;;6.47;;
8312;SDS011;4194;43.408;24.626;2023-04-15T05:49:28;15.40;;;6.23;;
8312;SDS011;4194;43.408;24.626;2023-04-15T05:51:54;10.73;;;4.90;;
8312;SDS011;4194;43.408;24.626;2023-04-15T05:54:20;17.30;;;4.73;;
8312;SDS011;4194;43.408;24.626;2023-04-15T05:56:48;5.27;;;3.23;;
8312;SDS011;4194;43.408;24.626;2023-04-15T05:59:14;5.77;;;4.10;;
8312;SDS011;4194;43.408;24.626;2023-04-15T06:01:40;6.77;;;3.37;;
8312;SDS011;4194;43.408;24.626;2023-04-15T06:04:05;5.40;;;3.07;;
8312;SDS011;4194;43.408;24.626;2023-04-15T06:06:31;9.43;;;3.63;;
8312;SDS011;4194;43.408;24.626;2023-04-15T06:08:57;6.40;;;3.20;;
8312;SDS011;4194;43.408;24.626;2023-04-15T06:11:23;6.43;;;3.73;;
8312;SDS011;4194;43.408;24.626;2023-04-15T06:13:49;6.83;;;3.57;;
8312;SDS011;4194;43.408;24.626;2023-04-15T06:16:14;9.70;;;3.70;;
8312;SDS011;4194;43.408;24.626;2023-04-15T06:18:40;8.93;;;4.40;;
8312;SDS011;4194;43.408;24.626;2023-04-15T06:21:06;8.53;;;3.47;;
8312;SDS011;4194;43.408;24.626;2023-04-15T06:23:34;9.00;;;3.53;;
8312;SDS011;4194;43.408;24.626;2023-04-15T06:26:01;8.03;;;3.40;;
8312;SDS011;4194;43.408;24.626;2023-04-15T06:28:27;7.17;;;3.87;;
8312;SDS011;4194;43.408;24.626;2023-04-15T06:30:52;6.37;;;3.30;;
8312;SDS011;4194;43.408;24.626;2023-04-15T06:33:18;12.10;;;3.80;;
8312;SDS011;4194;43.408;24.626;2023-04-15T06:35:44;8.17;;;2.97;;
8312;SDS011;4194;43.408;24.626;2023-04-15T06:38:11;6.10;;;2.90;;
8312;SDS011;4194;43.408;24.626;2023-04-15T06:40:38;10.90;;;4.13;;
8312;SDS011;4194;43.408;24.626;2023-04-15T06:43:04;10.13;;;3.50;;
8312;SDS011;4194;43.408;24.626;2023-04-15T06:45:30;8.33;;;4.00;;
8312;SDS011;4194;43.408;24.626;2023-04-15T06:47:56;8.03;;;3.33;;
8312;SDS011;4194;43.408;24.626;2023-04-15T06:50:22;8.23;;;3.30;;
8312;SDS011;4194;43.408;24.626;2023-04-15T06:52:47;4.57;;;2.80;;
8312;SDS011;4194;43.408;24.626;2023-04-15T06:55:13;8.43;;;2.60;;
8312;SDS011;4194;43.408;24.626;2023-04-15T06:57:39;4.77;;;2.10;;
8312;SDS011;4194;43.408;24.626;2023-04-15T07:00:05;6.33;;;2.73;;
8312;SDS011;4194;43.408;24.626;2023-04-15T07:02:32;5.30;;;2.80;;
8312;SDS011;4194;43.408;24.626;2023-04-15T07:04:58;3.30;;;1.70;;
8312;SDS011;4194;43.408;24.626;2023-04-15T07:07:23;5.87;;;1.50;;
8312;SDS011;4194;43.408;24.626;2023-04-15T07:09:49;5.20;;;1.60;;
8312;SDS011;4194;43.408;24.626;2023-04-15T07:12:17;7.23;;;1.20;;
8312;SDS011;4194;43.408;24.626;2023-04-15T07:14:43;5.87;;;2.17;;
8312;SDS011;4194;43.408;24.626;2023-04-15T07:17:09;3.70;;;1.60;;
8312;SDS011;4194;43.408;24.626;2023-04-15T07:19:35;2.83;;;1.63;;
8312;SDS011;4194;43.408;24.626;2023-04-15T07:22:01;3.07;;;1.37;;
8312;SDS011;4194;43.408;24.626;2023-04-15T07:24:27;5.20;;;1.83;;
8312;SDS011;4194;43.408;24.626;2023-04-15T07:26:53;3.23;;;1.87;;
8312;SDS011;4194;43.408;24.626;2023-04-15T07:29:22;1.93;;;1.40;;
8312;SDS011;4194;43.408;24.626;2023-04-15T07:31:49;3.73;;;1.93;;
8312;SDS011;4194;43.408;24.626;2023-04-15T07:34:15;2.97;;;1.70;;
8312;SDS011;4194;43.408;24.626;2023-04-15T07:36:41;2.83;;;1.90;;
8312;SDS011;4194;43.408;24.626;2023-04-15T07:39:07;6.53;;;2.40;;
8312;SDS011;4194;43.408;24.626;2023-04-15T07:41:33;4.10;;;1.73;;
8312;SDS011;4194;43.408;24.626;2023-04-15T07:43:59;3.33;;;1.97;;
8312;SDS011;4194;43.408;24.626;2023-04-15T07:46:25;3.63;;;2.20;;
8312;SDS011;4194;43.408;24.626;2023-04-15T07:48:51;6.00;;;1.80;;
8312;SDS011;4194;43.408;24.626;2023-04-15T07:51:17;6.63;;;2.00;;
8312;SDS011;4194;43.408;24.626;2023-04-15T07:53:46;2.87;;;1.60;;
8312;SDS011;4194;43.408;24.626;2023-04-15T07:56:13;2.93;;;1.50;;
8312;SDS011;4194;43.408;24.626;2023-04-15T07:58:39;4.87;;;1.50;;
8312;SDS011;4194;43.408;24.626;2023-04-15T08:01:05;1.30;;;0.90;;
8312;SDS011;4194;43.408;24.626;2023-04-15T08:03:31;2.23;;;1.20;;
8312;SDS011;4194;43.408;24.626;2023-04-15T08:05:57;3.03;;;1.57;;
8312;SDS011;4194;43.408;24.626;2023-04-15T08:08:23;1.70;;;1.03;;
8312;SDS011;4194;43.408;24.626;2023-04-15T08:10:49;1.53;;;1.23;;
8312;SDS011;4194;43.408;24.626;2023-04-15T08:13:15;4.73;;;1.30;;
8312;SDS011;4194;43.408;24.626;2023-04-15T08:15:41;2.13;;;1.23;;
8312;SDS011;4194;43.408;24.626;2023-04-15T08:18:07;1.77;;;1.10;;
8312;SDS011;4194;43.408;24.626;2023-04-15T08:20:32;2.93;;;1.07;;
8312;SDS011;4194;43.408;24.626;2023-04-15T08:22:58;2.30;;;1.27;;
8312;SDS011;4194;43.408;24.626;2023-04-15T08:25:24;2.83;;;1.60;;
8312;SDS011;4194;43.408;24.626;2023-04-15T08:27:50;2.50;;;1.20;;
8312;SDS011;4194;43.408;24.626;2023-04-15T08:30:16;1.60;;;1.17;;
8312;SDS011;4194;43.408;24.626;2023-04-15T08:32:44;2.27;;;1.23;;
8312;SDS011;4194;43.408;24.626;2023-04-15T08:35:11;2.03;;;1.10;;
8312;SDS011;4194;43.408;24.626;2023-04-15T08:37:37;2.23;;;1.60;;
8312;SDS011;4194;43.408;24.626;2023-04-15T08:40:03;2.60;;;1.33;;
8312;SDS011;4194;43.408;24.626;2023-04-15T08:42:30;3.27;;;1.87;;
8312;SDS011;4194;43.408;24.626;2023-04-15T08:45:00;4.13;;;2.50;;
8312;SDS011;4194;43.408;24.626;2023-04-15T08:47:29;3.93;;;2.40;;
8312;SDS011;4194;43.408;24.626;2023-04-15T08:49:58;3.97;;;2.00;;
8312;SDS011;4194;43.408;24.626;2023-04-15T08:52:29;4.43;;;2.83;;
8312;SDS011;4194;43.408;24.626;2023-04-15T08:54:56;5.53;;;1.70;;
8312;SDS011;4194;43.408;24.626;2023-04-15T08:57:25;3.47;;;1.33;;
8312;SDS011;4194;43.408;24.626;2023-04-15T08:59:55;4.47;;;1.70;;
8312;SDS011;4194;43.408;24.626;2023-04-15T09:02:22;1.37;;;1.27;;
8312;SDS011;4194;43.408;24.626;2023-04-15T09:04:49;4.07;;;2.40;;
8312;SDS011;4194;43.408;24.626;2023-04-15T09:07:15;2.53;;;1.80;;
8312;SDS011;4194;43.408;24.626;2023-04-15T09:09:41;5.00;;;1.90;;
8312;SDS011;4194;43.408;24.626;2023-04-15T09:12:07;1.93;;;1.40;;
8312;SDS011;4194;43.408;24.626;2023-04-15T09:14:33;3.03;;;1.13;;
8312;SDS011;4194;43.408;24.626;2023-04-15T09:17:02;2.57;;;1.50;;
8312;SDS011;4194;43.408;24.626;2023-04-15T09:19:29;2.70;;;1.33;;
8312;SDS011;4194;43.408;24.626;2023-04-15T09:21:57;3.70;;;1.50;;
8312;SDS011;4194;43.408;24.626;2023-04-15T09:24:24;1.90;;;1.20;;
8312;SDS011;4194;43.408;24.626;2023-04-15T09:26:57;1.97;;;1.23;;
8312;SDS011;4194;43.408;24.626;2023-04-15T09:29:23;4.93;;;1.30;;
8312;SDS011;4194;43.408;24.626;2023-04-15T09:31:50;3.83;;;1.70;;
8312;SDS011;4194;43.408;24.626;2023-04-15T09:34:17;2.77;;;1.30;;
8312;SDS011;4194;43.408;24.626;2023-04-15T09:39:11;4.50;;;1.40;;
8312;SDS011;4194;43.408;24.626;2023-04-15T09:41:38;1.80;;;1.20;;
8312;SDS011;4194;43.408;24.626;2023-04-15T09:44:04;2.53;;;1.17;;
8312;SDS011;4194;43.408;24.626;2023-04-15T09:46:43;2.67;;;1.20;;
8312;SDS011;4194;43.408;24.626;2023-04-15T09:49:10;1.77;;;1.30;;
8312;SDS011;4194;43.408;24.626;2023-04-15T09:51:37;2.40;;;1.13;;
8312;SDS011;4194;43.408;24.626;2023-04-15T09:54:03;1.30;;;1.20;;
8312;SDS011;4194;43.408;24.626;2023-04-15T09:56:36;2.90;;;1.20;;
8312;SDS011;4194;43.408;24.626;2023-04-15T09:59:05;2.93;;;1.07;;
8312;SDS011;4194;43.408;24.626;2023-04-15T10:01:32;2.77;;;1.37;;
8312;SDS011;4194;43.408;24.626;2023-04-15T10:04:02;3.43;;;1.60;;
8312;SDS011;4194;43.408;24.626;2023-04-15T10:06:29;1.87;;;1.20;;
8312;SDS011;4194;43.408;24.626;2023-04-15T10:08:56;5.00;;;1.37;;
8312;SDS011;4194;43.408;24.626;2023-04-15T10:11:23;1.70;;;1.10;;
8312;SDS011;4194;43.408;24.626;2023-04-15T10:13:52;2.63;;;1.10;;
8312;SDS011;4194;43.408;24.626;2023-04-15T10:16:19;1.87;;;1.50;;
8312;SDS011;4194;43.408;24.626;2023-04-15T10:18:46;1.50;;;1.00;;
8312;SDS011;4194;43.408;24.626;2023-04-15T10:21:18;3.83;;;1.43;;
8312;SDS011;4194;43.408;24.626;2023-04-15T10:23:47;2.10;;;1.17;;
8312;SDS011;4194;43.408;24.626;2023-04-15T10:26:14;1.27;;;1.17;;
8312;SDS011;4194;43.408;24.626;2023-04-15T10:28:41;1.27;;;1.13;;
8312;SDS011;4194;43.408;24.626;2023-04-15T10:31:09;4.07;;;1.20;;
8312;SDS011;4194;43.408;24.626;2023-04-15T10:33:36;3.13;;;1.10;;
8312;SDS011;4194;43.408;24.626;2023-04-15T10:36:03;2.17;;;1.40;;
8312;SDS011;4194;43.408;24.626;2023-04-15T10:38:37;2.15;;;1.20;;
8312;SDS011;4194;43.408;24.626;2023-04-15T10:43:52;1.77;;;1.03;;
8312;SDS011;4194;43.408;24.626;2023-04-15T10:49:07;2.40;;;1.13;;
8312;SDS011;4194;43.408;24.626;2023-04-15T10:51:38;3.30;;;1.10;;
8312;SDS011;4194;43.408;24.626;2023-04-15T10:54:18;2.10;;;1.27;;
8312;SDS011;4194;43.408;24.626;2023-04-15T10:59:28;2.50;;;1.23;;
8312;SDS011;4194;43.408;24.626;2023-04-15T11:02:02;1.37;;;0.83;;
8312;SDS011;4194;43.408;24.626;2023-04-15T11:10:00;3.07;;;1.27;;
8312;SDS011;4194;43.408;24.626;2023-04-15T11:12:33;3.17;;;1.27;;
8312;SDS011;4194;43.408;24.626;2023-04-15T11:15:23;2.17;;;1.00;;
8312;SDS011;4194;43.408;24.626;2023-04-15T11:18:09;2.97;;;1.17;;
8312;SDS011;4194;43.408;24.626;2023-04-15T11:20:37;1.80;;;1.23;;
8312;SDS011;4194;43.408;24.626;2023-04-15T11:23:04;1.70;;;1.20;;
8312;SDS011;4194;43.408;24.626;2023-04-15T11:25:31;2.50;;;1.07;;
8312;SDS011;4194;43.408;24.626;2023-04-15T11:27:58;2.47;;;1.10;;
8312;SDS011;4194;43.408;24.626;2023-04-15T11:30:26;2.20;;;0.90;;
8312;SDS011;4194;43.408;24.626;2023-04-15T11:32:54;2.93;;;1.20;;
8312;SDS011;4194;43.408;24.626;2023-04-15T11:35:22;1.87;;;1.10;;
8312;SDS011;4194;43.408;24.626;2023-04-15T11:37:48;3.40;;;1.60;;
8312;SDS011;4194;43.408;24.626;2023-04-15T11:40:14;2.77;;;1.30;;
8312;SDS011;4194;43.408;24.626;2023-04-15T11:42:42;3.23;;;1.20;;
8312;SDS011;4194;43.408;24.626;2023-04-15T11:45:12;2.20;;;1.07;;
8312;SDS011;4194;43.408;24.626;2023-04-15T11:47:40;3.23;;;1.17;;
8312;SDS011;4194;43.408;24.626;2023-04-15T11:52:51;4.40;;;1.33;;
8312;SDS011;4194;43.408;24.626;2023-04-15T11:55:22;1.47;;;1.00;;
8312;SDS011;4194;43.408;24.626;2023-04-15T11:58:07;3.30;;;1.30;;
8312;SDS011;4194;43.408;24.626;2023-04-15T12:00:54;2.67;;;0.97;;
8312;SDS011;4194;43.408;24.626;2023-04-15T12:03:23;3.50;;;1.20;;
8312;SDS011;4194;43.408;24.626;2023-04-15T12:08:48;1.83;;;1.00;;
8312;SDS011;4194;43.408;24.626;2023-04-15T12:11:15;4.30;;;1.33;;
8312;SDS011;4194;43.408;24.626;2023-04-15T12:13:47;3.03;;;1.20;;
8312;SDS011;4194;43.408;24.626;2023-04-15T12:16:18;3.03;;;1.20;;
8312;SDS011;4194;43.408;24.626;2023-04-15T12:18:45;1.47;;;1.10;;
8312;SDS011;4194;43.408;24.626;2023-04-15T12:21:12;1.80;;;0.90;;
8312;SDS011;4194;43.408;24.626;2023-04-15T12:23:39;1.20;;;0.90;;
8312;SDS011;4194;43.408;24.626;2023-04-15T12:26:30;2.67;;;1.17;;
8312;SDS011;4194;43.408;24.626;2023-04-15T12:29:06;4.90;;;1.10;;
8312;SDS011;4194;43.408;24.626;2023-04-15T12:31:35;2.13;;;1.10;;
8312;SDS011;4194;43.408;24.626;2023-04-15T12:34:02;3.53;;;1.20;;
8312;SDS011;4194;43.408;24.626;2023-04-15T12:36:31;2.37;;;1.20;;
8312;SDS011;4194;43.408;24.626;2023-04-15T12:39:03;2.17;;;0.87;;
8312;SDS011;4194;43.408;24.626;2023-04-15T12:41:29;2.20;;;1.07;;
8312;SDS011;4194;43.408;24.626;2023-04-15T12:43:55;3.27;;;1.20;;
8312;SDS011;4194;43.408;24.626;2023-04-15T12:46:21;2.73;;;1.00;;
8312;SDS011;4194;43.408;24.626;2023-04-15T12:48:47;4.97;;;1.13;;
8312;SDS011;4194;43.408;24.626;2023-04-15T12:51:14;1.57;;;0.80;;
8312;SDS011;4194;43.408;24.626;2023-04-15T12:53:39;3.27;;;1.20;;
8312;SDS011;4194;43.408;24.626;2023-04-15T12:56:05;6.53;;;1.33;;
8312;SDS011;4194;43.408;24.626;2023-04-15T12:58:31;1.90;;;0.97;;
8312;SDS011;4194;43.408;24.626;2023-04-15T13:00:57;1.63;;;1.00;;
8312;SDS011;4194;43.408;24.626;2023-04-15T13:03:23;2.47;;;1.10;;
8312;SDS011;4194;43.408;24.626;2023-04-15T13:05:49;3.70;;;1.10;;
8312;SDS011;4194;43.408;24.626;2023-04-15T13:08:15;2.47;;;1.10;;
8312;SDS011;4194;43.408;24.626;2023-04-15T13:10:41;1.23;;;0.93;;
8312;SDS011;4194;43.408;24.626;2023-04-15T13:13:07;2.93;;;1.13;;
8312;SDS011;4194;43.408;24.626;2023-04-15T13:15:33;2.03;;;0.87;;
8312;SDS011;4194;43.408;24.626;2023-04-15T13:17:59;1.67;;;1.10;;
8312;SDS011;4194;43.408;24.626;2023-04-15T13:20:25;1.70;;;0.90;;
8312;SDS011;4194;43.408;24.626;2023-04-15T13:22:52;1.80;;;1.02;;
8312;SDS011;4194;43.408;24.626;2023-04-15T13:25:18;1.57;;;1.00;;
8312;SDS011;4194;43.408;24.626;2023-04-15T13:27:43;3.13;;;1.20;;
8312;SDS011;4194;43.408;24.626;2023-04-15T13:30:09;3.20;;;1.10;;
8312;SDS011;4194;43.408;24.626;2023-04-15T13:32:36;2.40;;;1.40;;
8312;SDS011;4194;43.408;24.626;2023-04-15T13:35:01;1.63;;;0.80;;
8312;SDS011;4194;43.408;24.626;2023-04-15T13:37:28;2.60;;;1.17;;
8312;SDS011;4194;43.408;24.626;2023-04-15T13:39:54;3.40;;;1.10;;
8312;SDS011;4194;43.408;24.626;2023-04-15T13:42:21;1.20;;;0.95;;
8312;SDS011;4194;43.408;24.626;2023-04-15T13:44:51;1.05;;;0.88;;
8312;SDS011;4194;43.408;24.626;2023-04-15T13:47:20;2.95;;;1.05;;
8312;SDS011;4194;43.408;24.626;2023-04-15T13:49:45;1.70;;;0.90;;
8312;SDS011;4194;43.408;24.626;2023-04-15T13:52:11;1.45;;;0.93;;
8312;SDS011;4194;43.408;24.626;2023-04-15T13:54:37;1.55;;;0.95;;
8312;SDS011;4194;43.408;24.626;2023-04-15T13:57:03;6.38;;;1.10;;
8312;SDS011;4194;43.408;24.626;2023-04-15T13:59:30;2.17;;;1.00;;
8312;SDS011;4194;43.408;24.626;2023-04-15T14:01:57;2.97;;;1.00;;
8312;SDS011;4194;43.408;24.626;2023-04-15T14:04:23;1.45;;;0.80;;
8312;SDS011;4194;43.408;24.626;2023-04-15T14:06:48;2.17;;;0.75;;
8312;SDS011;4194;43.408;24.626;2023-04-15T14:09:14;2.40;;;1.02;;
8312;SDS011;4194;43.408;24.626;2023-04-15T14:11:40;2.80;;;1.30;;
8312;SDS011;4194;43.408;24.626;2023-04-15T14:14:06;1.27;;;0.70;;
8312;SDS011;4194;43.408;24.626;2023-04-15T14:16:32;1.90;;;0.93;;
8312;SDS011;4194;43.408;24.626;2023-04-15T14:18:58;1.87;;;1.00;;
8312;SDS011;4194;43.408;24.626;2023-04-15T14:21:24;2.43;;;1.10;;
8312;SDS011;4194;43.408;24.626;2023-04-15T14:23:54;1.63;;;1.00;;
8312;SDS011;4194;43.408;24.626;2023-04-15T14:26:19;3.43;;;1.13;;
8312;SDS011;4194;43.408;24.626;2023-04-15T14:28:45;2.07;;;1.07;;
8312;SDS011;4194;43.408;24.626;2023-04-15T14:31:12;1.10;;;0.90;;
8312;SDS011;4194;43.408;24.626;2023-04-15T14:33:38;1.33;;;1.20;;
8312;SDS011;4194;43.408;24.626;2023-04-15T14:36:04;2.70;;;1.10;;
8312;SDS011;4194;43.408;24.626;2023-04-15T14:38:32;2.30;;;1.10;;
8312;SDS011;4194;43.408;24.626;2023-04-15T14:41:02;2.83;;;1.27;;
8312;SDS011;4194;43.408;24.626;2023-04-15T14:43:29;1.33;;;0.82;;
8312;SDS011;4194;43.408;24.626;2023-04-15T14:45:54;3.35;;;0.80;;
8312;SDS011;4194;43.408;24.626;2023-04-15T14:48:20;2.60;;;1.35;;
8312;SDS011;4194;43.408;24.626;2023-04-15T14:50:46;2.45;;;1.20;;
8312;SDS011;4194;43.408;24.626;2023-04-15T14:53:11;2.97;;;1.17;;
8312;SDS011;4194;43.408;24.626;2023-04-15T14:55:37;2.13;;;0.90;;
8312;SDS011;4194;43.408;24.626;2023-04-15T14:58:03;3.53;;;0.93;;
8312;SDS011;4194;43.408;24.626;2023-04-15T15:00:28;3.88;;;0.95;;
8312;SDS011;4194;43.408;24.626;2023-04-15T15:02:54;2.90;;;1.10;;
8312;SDS011;4194;43.408;24.626;2023-04-15T15:05:20;3.65;;;0.95;;
8312;SDS011;4194;43.408;24.626;2023-04-15T15:07:46;2.00;;;1.00;;
8312;SDS011;4194;43.408;24.626;2023-04-15T15:10:11;2.20;;;1.20;;
8312;SDS011;4194;43.408;24.626;2023-04-15T15:12:37;1.58;;;0.90;;
8312;SDS011;4194;43.408;24.626;2023-04-15T15:15:03;2.30;;;1.10;;
8312;SDS011;4194;43.408;24.626;2023-04-15T15:17:29;1.05;;;0.85;;